sensor_id;sensor_type;location;lat;lon;timestamp;P1;durP1;ratioP1;P2;durP2;ratioP2
7817;SDS011;3954;52.624;9.212;2022-07-22T00:01:24;13.73;;;12.63;;
7817;SDS011;3954;52.624;9.212;2022-07-22T00:03:50;13.60;;;12.33;;
7817;SDS011;3954;52.624;9.212;2022-07-22T00:06:17;15.43;;;13.87;;
7817;SDS011;3954;52.624;9.212;2022-07-22T00:08:43;17.00;;;15.23;;
7817;SDS011;3954;52.624;9.212;2022-07-22T00:11:09;16.43;;;14.93;;
7817;SDS011;3954;52.624;9.212;2022-07-22T00:13:35;16.63;;;15.23;;
7817;SDS011;3954;52.624;9.212;2022-07-22T00:16:01;15.90;;;14.50;;
7817;SDS011;3954;52.624;9.212;2022-07-22T00:18:27;16.13;;;14.50;;
7817;SDS011;3954;52.624;9.212;2022-07-22T00:20:54;15.43;;;14.13;;
7817;SDS011;3954;52.624;9.212;2022-07-22T00:23:22;17.97;;;16.20;;
7817;SDS011;3954;52.624;9.212;2022-07-22T00:25:48;19.63;;;17.83;;
7817;SDS011;3954;52.624;9.212;2022-07-22T00:28:14;20.53;;;18.53;;
7817;SDS011;3954;52.624;9.212;2022-07-22T00:30:39;19.07;;;17.13;;
7817;SDS011;3954;52.624;9.212;2022-07-22T00:33:06;17.00;;;15.57;;
7817;SDS011;3954;52.624;9.212;2022-07-22T00:35:32;16.80;;;15.40;;
7817;SDS011;3954;52.624;9.212;2022-07-22T00:37:58;14.40;;;13.20;;
7817;SDS011;3954;52.624;9.212;2022-07-22T00:40:25;12.00;;;11.00;;
7817;SDS011;3954;52.624;9.212;2022-07-22T00:42:51;7.73;;;7.03;;
7817;SDS011;3954;52.624;9.212;2022-07-22T00:45:18;6.40;;;5.80;;
7817;SDS011;3954;52.624;9.212;2022-07-22T00:47:44;6.97;;;5.37;;
7817;SDS011;3954;52.624;9.212;2022-07-22T00:50:10;5.43;;;4.90;;
7817;SDS011;3954;52.624;9.212;2022-07-22T00:52:36;4.80;;;4.40;;
7817;SDS011;3954;52.624;9.212;2022-07-22T00:55:03;4.60;;;4.20;;
7817;SDS011;3954;52.624;9.212;2022-07-22T00:57:31;6.60;;;4.00;;
7817;SDS011;3954;52.624;9.212;2022-07-22T00:59:57;3.73;;;3.33;;
7817;SDS011;3954;52.624;9.212;2022-07-22T01:02:23;4.30;;;3.67;;
7817;SDS011;3954;52.624;9.212;2022-07-22T01:04:49;5.43;;;3.30;;
7817;SDS011;3954;52.624;9.212;2022-07-22T01:07:15;3.97;;;3.27;;
7817;SDS011;3954;52.624;9.212;2022-07-22T01:09:42;3.50;;;2.97;;
7817;SDS011;3954;52.624;9.212;2022-07-22T01:12:08;4.17;;;2.87;;
7817;SDS011;3954;52.624;9.212;2022-07-22T01:14:36;3.43;;;2.77;;
7817;SDS011;3954;52.624;9.212;2022-07-22T01:17:02;3.13;;;2.83;;
7817;SDS011;3954;52.624;9.212;2022-07-22T01:19:28;5.73;;;2.80;;
7817;SDS011;3954;52.624;9.212;2022-07-22T01:21:55;3.23;;;2.67;;
7817;SDS011;3954;52.624;9.212;2022-07-22T01:24:21;3.10;;;2.80;;
7817;SDS011;3954;52.624;9.212;2022-07-22T01:26:47;3.23;;;2.80;;
7817;SDS011;3954;52.624;9.212;2022-07-22T01:29:13;3.83;;;2.93;;
7817;SDS011;3954;52.624;9.212;2022-07-22T01:31:40;3.53;;;2.80;;
7817;SDS011;3954;52.624;9.212;2022-07-22T01:34:05;3.40;;;3.10;;
7817;SDS011;3954;52.624;9.212;2022-07-22T01:36:32;3.20;;;2.90;;
7817;SDS011;3954;52.624;9.212;2022-07-22T01:38:59;3.17;;;2.30;;
7817;SDS011;3954;52.624;9.212;2022-07-22T01:41:25;3.20;;;2.60;;
7817;SDS011;3954;52.624;9.212;2022-07-22T01:43:51;4.30;;;2.50;;
7817;SDS011;3954;52.624;9.212;2022-07-22T01:46:17;4.80;;;2.90;;
7817;SDS011;3954;52.624;9.212;2022-07-22T01:48:43;2.97;;;2.77;;
7817;SDS011;3954;52.624;9.212;2022-07-22T01:51:09;4.37;;;2.43;;
7817;SDS011;3954;52.624;9.212;2022-07-22T01:53:35;4.20;;;2.60;;
7817;SDS011;3954;52.624;9.212;2022-07-22T01:56:02;4.17;;;3.00;;
7817;SDS011;3954;52.624;9.212;2022-07-22T01:58:29;3.27;;;2.60;;
7817;SDS011;3954;52.624;9.212;2022-07-22T02:00:55;3.17;;;2.97;;
7817;SDS011;3954;52.624;9.212;2022-07-22T02:03:21;5.80;;;3.50;;
7817;SDS011;3954;52.624;9.212;2022-07-22T02:05:46;3.33;;;3.03;;
7817;SDS011;3954;52.624;9.212;2022-07-22T02:08:12;3.87;;;3.00;;
7817;SDS011;3954;52.624;9.212;2022-07-22T02:10:39;5.30;;;3.33;;
7817;SDS011;3954;52.624;9.212;2022-07-22T02:13:07;4.73;;;3.70;;
7817;SDS011;3954;52.624;9.212;2022-07-22T02:15:33;4.00;;;3.70;;
7817;SDS011;3954;52.624;9.212;2022-07-22T02:17:59;4.23;;;3.83;;
7817;SDS011;3954;52.624;9.212;2022-07-22T02:20:25;4.27;;;3.87;;
7817;SDS011;3954;52.624;9.212;2022-07-22T02:22:51;4.53;;;3.60;;
7817;SDS011;3954;52.624;9.212;2022-07-22T02:25:17;4.03;;;3.63;;
7817;SDS011;3954;52.624;9.212;2022-07-22T02:27:43;3.67;;;3.33;;
7817;SDS011;3954;52.624;9.212;2022-07-22T02:30:11;5.60;;;4.27;;
7817;SDS011;3954;52.624;9.212;2022-07-22T02:32:37;6.50;;;3.47;;
7817;SDS011;3954;52.624;9.212;2022-07-22T02:35:03;4.20;;;3.60;;
7817;SDS011;3954;52.624;9.212;2022-07-22T02:37:30;4.27;;;3.03;;
7817;SDS011;3954;52.624;9.212;2022-07-22T02:39:56;5.07;;;3.47;;
7817;SDS011;3954;52.624;9.212;2022-07-22T02:42:22;7.07;;;3.90;;
7817;SDS011;3954;52.624;9.212;2022-07-22T02:44:47;3.07;;;2.77;;
7817;SDS011;3954;52.624;9.212;2022-07-22T02:47:15;5.27;;;3.00;;
7817;SDS011;3954;52.624;9.212;2022-07-22T02:49:41;2.80;;;2.60;;
7817;SDS011;3954;52.624;9.212;2022-07-22T02:52:07;5.50;;;3.03;;
7817;SDS011;3954;52.624;9.212;2022-07-22T02:54:33;3.63;;;3.00;;
7817;SDS011;3954;52.624;9.212;2022-07-22T02:56:59;2.80;;;2.53;;
7817;SDS011;3954;52.624;9.212;2022-07-22T02:59:25;4.03;;;2.80;;
7817;SDS011;3954;52.624;9.212;2022-07-22T03:01:51;2.40;;;2.20;;
7817;SDS011;3954;52.624;9.212;2022-07-22T03:04:18;2.43;;;2.23;;
7817;SDS011;3954;52.624;9.212;2022-07-22T03:06:44;3.67;;;2.57;;
7817;SDS011;3954;52.624;9.212;2022-07-22T03:09:10;4.53;;;2.47;;
7817;SDS011;3954;52.624;9.212;2022-07-22T03:11:36;3.27;;;2.63;;
7817;SDS011;3954;52.624;9.212;2022-07-22T03:14:02;5.80;;;3.30;;
7817;SDS011;3954;52.624;9.212;2022-07-22T03:16:28;3.10;;;2.47;;
7817;SDS011;3954;52.624;9.212;2022-07-22T03:18:54;4.07;;;2.60;;
7817;SDS011;3954;52.624;9.212;2022-07-22T03:21:21;4.40;;;2.93;;
7817;SDS011;3954;52.624;9.212;2022-07-22T03:23:47;3.17;;;2.53;;
7817;SDS011;3954;52.624;9.212;2022-07-22T03:26:18;4.80;;;2.90;;
7817;SDS011;3954;52.624;9.212;2022-07-22T03:28:45;4.93;;;3.10;;
7817;SDS011;3954;52.624;9.212;2022-07-22T03:31:12;5.57;;;2.90;;
7817;SDS011;3954;52.624;9.212;2022-07-22T03:33:38;3.57;;;3.07;;
7817;SDS011;3954;52.624;9.212;2022-07-22T03:36:04;5.07;;;3.03;;
7817;SDS011;3954;52.624;9.212;2022-07-22T03:38:34;3.37;;;3.07;;
7817;SDS011;3954;52.624;9.212;2022-07-22T03:41:00;3.00;;;2.70;;
7817;SDS011;3954;52.624;9.212;2022-07-22T03:43:26;4.97;;;3.17;;
7817;SDS011;3954;52.624;9.212;2022-07-22T03:45:52;7.80;;;3.43;;
7817;SDS011;3954;52.624;9.212;2022-07-22T03:48:18;3.10;;;2.80;;
7817;SDS011;3954;52.624;9.212;2022-07-22T03:50:44;4.93;;;3.23;;
7817;SDS011;3954;52.624;9.212;2022-07-22T03:53:10;6.90;;;3.23;;
7817;SDS011;3954;52.624;9.212;2022-07-22T03:55:38;5.77;;;4.10;;
7817;SDS011;3954;52.624;9.212;2022-07-22T03:58:04;7.70;;;4.10;;
7817;SDS011;3954;52.624;9.212;2022-07-22T04:00:30;6.63;;;4.73;;
7817;SDS011;3954;52.624;9.212;2022-07-22T04:02:56;7.20;;;4.63;;
7817;SDS011;3954;52.624;9.212;2022-07-22T04:05:22;6.90;;;4.70;;
7817;SDS011;3954;52.624;9.212;2022-07-22T04:07:48;7.23;;;4.60;;
7817;SDS011;3954;52.624;9.212;2022-07-22T04:10:14;5.67;;;4.20;;
7817;SDS011;3954;52.624;9.212;2022-07-22T04:12:41;4.83;;;3.53;;
7817;SDS011;3954;52.624;9.212;2022-07-22T04:15:07;5.33;;;3.90;;
7817;SDS011;3954;52.624;9.212;2022-07-22T04:17:34;5.97;;;4.03;;
7817;SDS011;3954;52.624;9.212;2022-07-22T04:20:00;4.07;;;3.40;;
7817;SDS011;3954;52.624;9.212;2022-07-22T04:22:26;6.13;;;4.03;;
7817;SDS011;3954;52.624;9.212;2022-07-22T04:24:52;3.73;;;3.30;;
7817;SDS011;3954;52.624;9.212;2022-07-22T04:27:18;5.40;;;4.00;;
7817;SDS011;3954;52.624;9.212;2022-07-22T04:29:45;5.00;;;3.80;;
7817;SDS011;3954;52.624;9.212;2022-07-22T04:32:11;7.83;;;4.60;;
7817;SDS011;3954;52.624;9.212;2022-07-22T04:34:37;4.97;;;4.40;;
7817;SDS011;3954;52.624;9.212;2022-07-22T04:37:03;5.60;;;4.40;;
7817;SDS011;3954;52.624;9.212;2022-07-22T04:39:29;8.20;;;4.20;;
7817;SDS011;3954;52.624;9.212;2022-07-22T04:41:55;6.70;;;4.43;;
7817;SDS011;3954;52.624;9.212;2022-07-22T04:44:21;6.97;;;4.00;;
7817;SDS011;3954;52.624;9.212;2022-07-22T04:46:48;7.03;;;4.50;;
7817;SDS011;3954;52.624;9.212;2022-07-22T04:49:14;8.73;;;5.03;;
7817;SDS011;3954;52.624;9.212;2022-07-22T04:51:40;4.67;;;4.20;;
7817;SDS011;3954;52.624;9.212;2022-07-22T04:54:06;4.57;;;4.03;;
7817;SDS011;3954;52.624;9.212;2022-07-22T04:56:32;6.60;;;4.50;;
7817;SDS011;3954;52.624;9.212;2022-07-22T04:58:58;5.00;;;4.50;;
7817;SDS011;3954;52.624;9.212;2022-07-22T05:01:24;5.50;;;4.50;;
7817;SDS011;3954;52.624;9.212;2022-07-22T05:03:52;7.57;;;4.50;;
7817;SDS011;3954;52.624;9.212;2022-07-22T05:06:18;6.07;;;4.47;;
7817;SDS011;3954;52.624;9.212;2022-07-22T05:08:44;6.00;;;4.53;;
7817;SDS011;3954;52.624;9.212;2022-07-22T05:11:10;10.07;;;4.53;;
7817;SDS011;3954;52.624;9.212;2022-07-22T05:13:37;9.67;;;5.23;;
7817;SDS011;3954;52.624;9.212;2022-07-22T05:16:03;8.40;;;5.03;;
7817;SDS011;3954;52.624;9.212;2022-07-22T05:18:29;6.03;;;3.87;;
7817;SDS011;3954;52.624;9.212;2022-07-22T05:20:56;6.93;;;4.47;;
7817;SDS011;3954;52.624;9.212;2022-07-22T05:23:22;7.13;;;4.20;;
7817;SDS011;3954;52.624;9.212;2022-07-22T05:25:48;5.87;;;4.53;;
7817;SDS011;3954;52.624;9.212;2022-07-22T05:28:14;6.77;;;4.20;;
7817;SDS011;3954;52.624;9.212;2022-07-22T05:30:40;5.10;;;3.90;;
7817;SDS011;3954;52.624;9.212;2022-07-22T05:33:06;5.00;;;3.90;;
7817;SDS011;3954;52.624;9.212;2022-07-22T05:35:32;4.90;;;3.60;;
7817;SDS011;3954;52.624;9.212;2022-07-22T05:37:59;6.97;;;3.40;;
7817;SDS011;3954;52.624;9.212;2022-07-22T05:40:25;5.80;;;3.10;;
7817;SDS011;3954;52.624;9.212;2022-07-22T05:42:51;5.07;;;3.00;;
7817;SDS011;3954;52.624;9.212;2022-07-22T05:45:18;4.73;;;2.97;;
7817;SDS011;3954;52.624;9.212;2022-07-22T05:47:44;3.30;;;2.97;;
7817;SDS011;3954;52.624;9.212;2022-07-22T05:50:09;6.90;;;3.57;;
7817;SDS011;3954;52.624;9.212;2022-07-22T05:52:36;4.57;;;3.30;;
7817;SDS011;3954;52.624;9.212;2022-07-22T05:55:03;11.40;;;3.70;;
7817;SDS011;3954;52.624;9.212;2022-07-22T05:57:30;8.33;;;3.10;;
7817;SDS011;3954;52.624;9.212;2022-07-22T05:59:55;5.33;;;3.30;;
7817;SDS011;3954;52.624;9.212;2022-07-22T06:02:21;8.13;;;3.20;;
7817;SDS011;3954;52.624;9.212;2022-07-22T06:04:48;4.63;;;2.93;;
7817;SDS011;3954;52.624;9.212;2022-07-22T06:07:14;6.17;;;3.70;;
7817;SDS011;3954;52.624;9.212;2022-07-22T06:09:40;5.30;;;3.27;;
7817;SDS011;3954;52.624;9.212;2022-07-22T06:12:08;3.90;;;3.23;;
7817;SDS011;3954;52.624;9.212;2022-07-22T06:14:34;7.63;;;3.67;;
7817;SDS011;3954;52.624;9.212;2022-07-22T06:17:01;5.73;;;3.27;;
7817;SDS011;3954;52.624;9.212;2022-07-22T06:19:27;5.80;;;3.10;;
7817;SDS011;3954;52.624;9.212;2022-07-22T06:21:54;6.03;;;2.87;;
7817;SDS011;3954;52.624;9.212;2022-07-22T06:24:20;5.50;;;3.13;;
7817;SDS011;3954;52.624;9.212;2022-07-22T06:26:46;6.03;;;3.50;;
7817;SDS011;3954;52.624;9.212;2022-07-22T06:29:14;7.93;;;3.20;;
7817;SDS011;3954;52.624;9.212;2022-07-22T06:31:40;7.17;;;3.10;;
7817;SDS011;3954;52.624;9.212;2022-07-22T06:34:06;9.77;;;3.30;;
7817;SDS011;3954;52.624;9.212;2022-07-22T06:36:32;7.27;;;3.13;;
7817;SDS011;3954;52.624;9.212;2022-07-22T06:38:58;5.83;;;3.10;;
7817;SDS011;3954;52.624;9.212;2022-07-22T06:41:24;8.73;;;3.50;;
7817;SDS011;3954;52.624;9.212;2022-07-22T06:43:51;4.43;;;2.50;;
7817;SDS011;3954;52.624;9.212;2022-07-22T06:46:18;9.47;;;3.10;;
7817;SDS011;3954;52.624;9.212;2022-07-22T06:48:44;6.50;;;2.67;;
7817;SDS011;3954;52.624;9.212;2022-07-22T06:51:10;7.57;;;2.87;;
7817;SDS011;3954;52.624;9.212;2022-07-22T06:53:36;5.97;;;2.93;;
7817;SDS011;3954;52.624;9.212;2022-07-22T06:56:03;5.30;;;2.53;;
7817;SDS011;3954;52.624;9.212;2022-07-22T06:58:29;7.73;;;2.80;;
7817;SDS011;3954;52.624;9.212;2022-07-22T07:00:55;8.93;;;2.67;;
7817;SDS011;3954;52.624;9.212;2022-07-22T07:03:22;6.00;;;2.77;;
7817;SDS011;3954;52.624;9.212;2022-07-22T07:05:50;7.87;;;2.47;;
7817;SDS011;3954;52.624;9.212;2022-07-22T07:08:16;8.87;;;2.80;;
7817;SDS011;3954;52.624;9.212;2022-07-22T07:10:42;5.73;;;2.73;;
7817;SDS011;3954;52.624;9.212;2022-07-22T07:13:08;7.27;;;2.77;;
7817;SDS011;3954;52.624;9.212;2022-07-22T07:15:34;7.57;;;2.70;;
7817;SDS011;3954;52.624;9.212;2022-07-22T07:18:00;10.10;;;2.70;;
7817;SDS011;3954;52.624;9.212;2022-07-22T07:20:27;6.07;;;2.37;;
7817;SDS011;3954;52.624;9.212;2022-07-22T07:22:53;8.43;;;3.00;;
7817;SDS011;3954;52.624;9.212;2022-07-22T07:25:20;7.33;;;2.73;;
7817;SDS011;3954;52.624;9.212;2022-07-22T07:27:46;6.67;;;2.73;;
7817;SDS011;3954;52.624;9.212;2022-07-22T07:30:12;7.90;;;2.90;;
7817;SDS011;3954;52.624;9.212;2022-07-22T07:32:38;7.17;;;2.87;;
7817;SDS011;3954;52.624;9.212;2022-07-22T07:35:05;6.23;;;2.70;;
7817;SDS011;3954;52.624;9.212;2022-07-22T07:37:33;8.00;;;3.43;;
7817;SDS011;3954;52.624;9.212;2022-07-22T07:39:59;8.57;;;3.07;;
7817;SDS011;3954;52.624;9.212;2022-07-22T07:42:25;9.97;;;3.03;;
7817;SDS011;3954;52.624;9.212;2022-07-22T07:44:51;5.83;;;2.97;;
7817;SDS011;3954;52.624;9.212;2022-07-22T07:47:17;5.67;;;2.83;;
7817;SDS011;3954;52.624;9.212;2022-07-22T07:49:45;4.47;;;2.70;;
7817;SDS011;3954;52.624;9.212;2022-07-22T07:52:11;6.20;;;2.80;;
7817;SDS011;3954;52.624;9.212;2022-07-22T07:54:39;6.97;;;2.60;;
7817;SDS011;3954;52.624;9.212;2022-07-22T07:57:05;5.60;;;2.80;;
7817;SDS011;3954;52.624;9.212;2022-07-22T07:59:31;3.73;;;2.37;;
7817;SDS011;3954;52.624;9.212;2022-07-22T08:01:57;6.90;;;2.60;;
7817;SDS011;3954;52.624;9.212;2022-07-22T08:04:23;5.77;;;2.60;;
7817;SDS011;3954;52.624;9.212;2022-07-22T08:06:49;5.57;;;2.53;;
7817;SDS011;3954;52.624;9.212;2022-07-22T08:09:15;7.93;;;2.50;;
7817;SDS011;3954;52.624;9.212;2022-07-22T08:11:42;3.83;;;2.50;;
7817;SDS011;3954;52.624;9.212;2022-07-22T08:14:08;4.73;;;2.40;;
7817;SDS011;3954;52.624;9.212;2022-07-22T08:16:34;5.67;;;2.43;;
7817;SDS011;3954;52.624;9.212;2022-07-22T08:19:00;4.83;;;2.47;;
7817;SDS011;3954;52.624;9.212;2022-07-22T08:21:26;5.40;;;2.90;;
7817;SDS011;3954;52.624;9.212;2022-07-22T08:23:52;5.80;;;2.60;;
7817;SDS011;3954;52.624;9.212;2022-07-22T08:26:18;6.37;;;2.90;;
7817;SDS011;3954;52.624;9.212;2022-07-22T08:28:45;6.73;;;2.97;;
7817;SDS011;3954;52.624;9.212;2022-07-22T08:31:11;9.80;;;3.20;;
7817;SDS011;3954;52.624;9.212;2022-07-22T08:33:37;9.03;;;3.00;;
7817;SDS011;3954;52.624;9.212;2022-07-22T08:36:03;7.50;;;3.13;;
7817;SDS011;3954;52.624;9.212;2022-07-22T08:38:30;7.10;;;2.90;;
7817;SDS011;3954;52.624;9.212;2022-07-22T08:40:56;6.13;;;3.00;;
7817;SDS011;3954;52.624;9.212;2022-07-22T08:43:22;7.07;;;3.20;;
7817;SDS011;3954;52.624;9.212;2022-07-22T08:45:49;7.77;;;3.00;;
7817;SDS011;3954;52.624;9.212;2022-07-22T08:48:15;6.00;;;3.50;;
7817;SDS011;3954;52.624;9.212;2022-07-22T08:50:41;8.07;;;3.47;;
7817;SDS011;3954;52.624;9.212;2022-07-22T08:53:08;6.30;;;3.40;;
7817;SDS011;3954;52.624;9.212;2022-07-22T08:55:39;8.40;;;3.40;;
7817;SDS011;3954;52.624;9.212;2022-07-22T08:58:05;9.20;;;3.57;;
7817;SDS011;3954;52.624;9.212;2022-07-22T09:00:31;6.37;;;3.20;;
7817;SDS011;3954;52.624;9.212;2022-07-22T09:02:58;8.80;;;3.00;;
7817;SDS011;3954;52.624;9.212;2022-07-22T09:05:24;5.17;;;2.80;;
7817;SDS011;3954;52.624;9.212;2022-07-22T09:07:58;6.00;;;3.13;;
7817;SDS011;3954;52.624;9.212;2022-07-22T09:10:24;6.33;;;3.00;;
7817;SDS011;3954;52.624;9.212;2022-07-22T09:12:56;8.63;;;3.90;;
7817;SDS011;3954;52.624;9.212;2022-07-22T09:15:26;7.67;;;3.43;;
7817;SDS011;3954;52.624;9.212;2022-07-22T09:17:53;5.10;;;3.10;;
7817;SDS011;3954;52.624;9.212;2022-07-22T09:20:20;5.43;;;2.90;;
7817;SDS011;3954;52.624;9.212;2022-07-22T09:22:47;10.43;;;3.43;;
7817;SDS011;3954;52.624;9.212;2022-07-22T09:25:17;10.43;;;3.50;;
7817;SDS011;3954;52.624;9.212;2022-07-22T09:27:47;8.30;;;3.43;;
7817;SDS011;3954;52.624;9.212;2022-07-22T09:30:13;4.33;;;2.70;;
7817;SDS011;3954;52.624;9.212;2022-07-22T09:32:40;6.70;;;2.97;;
7817;SDS011;3954;52.624;9.212;2022-07-22T09:35:06;7.23;;;3.40;;
7817;SDS011;3954;52.624;9.212;2022-07-22T09:37:34;3.57;;;3.10;;
7817;SDS011;3954;52.624;9.212;2022-07-22T09:40:11;5.73;;;3.17;;
7817;SDS011;3954;52.624;9.212;2022-07-22T09:42:42;5.43;;;3.07;;
7817;SDS011;3954;52.624;9.212;2022-07-22T09:45:09;6.00;;;2.77;;
7817;SDS011;3954;52.624;9.212;2022-07-22T09:47:35;5.87;;;2.80;;
7817;SDS011;3954;52.624;9.212;2022-07-22T09:50:01;7.93;;;3.33;;
7817;SDS011;3954;52.624;9.212;2022-07-22T09:52:27;5.60;;;2.90;;
7817;SDS011;3954;52.624;9.212;2022-07-22T09:54:54;5.50;;;2.60;;
7817;SDS011;3954;52.624;9.212;2022-07-22T09:57:20;4.57;;;2.67;;
7817;SDS011;3954;52.624;9.212;2022-07-22T09:59:46;5.90;;;2.80;;
7817;SDS011;3954;52.624;9.212;2022-07-22T10:02:12;8.43;;;3.17;;
7817;SDS011;3954;52.624;9.212;2022-07-22T10:04:40;5.10;;;2.93;;
7817;SDS011;3954;52.624;9.212;2022-07-22T10:07:07;6.23;;;3.03;;
7817;SDS011;3954;52.624;9.212;2022-07-22T10:09:33;6.40;;;3.27;;
7817;SDS011;3954;52.624;9.212;2022-07-22T10:12:01;5.57;;;2.80;;
7817;SDS011;3954;52.624;9.212;2022-07-22T10:14:27;6.63;;;2.83;;
7817;SDS011;3954;52.624;9.212;2022-07-22T10:16:54;8.43;;;2.93;;
7817;SDS011;3954;52.624;9.212;2022-07-22T10:19:20;7.03;;;2.73;;
7817;SDS011;3954;52.624;9.212;2022-07-22T10:21:46;5.70;;;2.57;;
7817;SDS011;3954;52.624;9.212;2022-07-22T10:24:13;3.87;;;2.63;;
7817;SDS011;3954;52.624;9.212;2022-07-22T10:26:49;4.00;;;2.67;;
7817;SDS011;3954;52.624;9.212;2022-07-22T10:29:26;8.33;;;3.80;;
7817;SDS011;3954;52.624;9.212;2022-07-22T10:34:33;9.67;;;3.10;;
7817;SDS011;3954;52.624;9.212;2022-07-22T10:36:59;9.43;;;3.27;;
7817;SDS011;3954;52.624;9.212;2022-07-22T10:39:25;32.30;;;3.53;;
7817;SDS011;3954;52.624;9.212;2022-07-22T10:41:51;6.03;;;3.13;;
7817;SDS011;3954;52.624;9.212;2022-07-22T10:44:26;6.30;;;2.83;;
7817;SDS011;3954;52.624;9.212;2022-07-22T10:47:11;9.10;;;3.00;;
7817;SDS011;3954;52.624;9.212;2022-07-22T10:49:37;7.93;;;2.60;;
7817;SDS011;3954;52.624;9.212;2022-07-22T10:52:10;5.80;;;3.07;;
7817;SDS011;3954;52.624;9.212;2022-07-22T10:57:29;7.80;;;3.20;;
7817;SDS011;3954;52.624;9.212;2022-07-22T10:59:56;6.17;;;2.90;;
7817;SDS011;3954;52.624;9.212;2022-07-22T11:02:22;6.97;;;3.20;;
7817;SDS011;3954;52.624;9.212;2022-07-22T11:04:49;6.60;;;2.73;;
7817;SDS011;3954;52.624;9.212;2022-07-22T11:07:15;4.00;;;3.07;;
7817;SDS011;3954;52.624;9.212;2022-07-22T11:09:41;8.20;;;3.27;;
7817;SDS011;3954;52.624;9.212;2022-07-22T11:12:11;8.33;;;2.90;;
7817;SDS011;3954;52.624;9.212;2022-07-22T11:14:37;6.37;;;2.87;;
7817;SDS011;3954;52.624;9.212;2022-07-22T11:17:05;7.70;;;3.27;;
7817;SDS011;3954;52.624;9.212;2022-07-22T11:19:32;7.87;;;3.00;;
7817;SDS011;3954;52.624;9.212;2022-07-22T11:21:58;7.13;;;3.23;;
7817;SDS011;3954;52.624;9.212;2022-07-22T11:24:26;5.90;;;2.93;;
7817;SDS011;3954;52.624;9.212;2022-07-22T11:26:53;5.87;;;2.97;;
7817;SDS011;3954;52.624;9.212;2022-07-22T11:29:24;5.83;;;3.03;;
7817;SDS011;3954;52.624;9.212;2022-07-22T11:31:50;7.20;;;2.83;;
7817;SDS011;3954;52.624;9.212;2022-07-22T11:34:18;6.23;;;2.83;;
7817;SDS011;3954;52.624;9.212;2022-07-22T11:36:45;7.03;;;2.90;;
7817;SDS011;3954;52.624;9.212;2022-07-22T11:39:12;5.07;;;3.00;;
7817;SDS011;3954;52.624;9.212;2022-07-22T11:41:38;7.07;;;2.80;;
7817;SDS011;3954;52.624;9.212;2022-07-22T11:44:05;9.23;;;2.90;;
7817;SDS011;3954;52.624;9.212;2022-07-22T11:46:34;5.77;;;2.67;;
7817;SDS011;3954;52.624;9.212;2022-07-22T11:49:00;6.33;;;2.90;;
7817;SDS011;3954;52.624;9.212;2022-07-22T11:51:29;5.70;;;2.87;;
7817;SDS011;3954;52.624;9.212;2022-07-22T11:53:55;5.83;;;2.47;;
7817;SDS011;3954;52.624;9.212;2022-07-22T11:56:21;5.83;;;2.60;;
7817;SDS011;3954;52.624;9.212;2022-07-22T11:58:48;5.37;;;2.40;;
7817;SDS011;3954;52.624;9.212;2022-07-22T12:01:14;7.17;;;3.53;;
7817;SDS011;3954;52.624;9.212;2022-07-22T12:03:41;6.07;;;2.60;;
7817;SDS011;3954;52.624;9.212;2022-07-22T12:06:11;8.27;;;2.83;;
7817;SDS011;3954;52.624;9.212;2022-07-22T12:08:41;5.20;;;2.57;;
7817;SDS011;3954;52.624;9.212;2022-07-22T12:11:07;6.70;;;2.53;;
7817;SDS011;3954;52.624;9.212;2022-07-22T12:13:33;4.10;;;2.30;;
7817;SDS011;3954;52.624;9.212;2022-07-22T12:15:59;4.73;;;2.67;;
7817;SDS011;3954;52.624;9.212;2022-07-22T12:18:26;4.90;;;2.50;;
7817;SDS011;3954;52.624;9.212;2022-07-22T12:20:54;3.67;;;2.60;;
7817;SDS011;3954;52.624;9.212;2022-07-22T12:23:20;6.97;;;2.57;;
7817;SDS011;3954;52.624;9.212;2022-07-22T12:25:52;4.87;;;2.50;;
7817;SDS011;3954;52.624;9.212;2022-07-22T12:28:18;4.83;;;2.90;;
7817;SDS011;3954;52.624;9.212;2022-07-22T12:30:44;4.37;;;2.33;;
7817;SDS011;3954;52.624;9.212;2022-07-22T12:33:12;7.07;;;2.37;;
7817;SDS011;3954;52.624;9.212;2022-07-22T12:35:39;5.00;;;2.80;;
7817;SDS011;3954;52.624;9.212;2022-07-22T12:38:05;5.20;;;2.83;;
7817;SDS011;3954;52.624;9.212;2022-07-22T12:40:31;4.57;;;2.53;;
7817;SDS011;3954;52.624;9.212;2022-07-22T12:43:00;7.13;;;2.60;;
7817;SDS011;3954;52.624;9.212;2022-07-22T12:45:27;2.53;;;2.33;;
7817;SDS011;3954;52.624;9.212;2022-07-22T12:47:54;3.97;;;2.60;;
7817;SDS011;3954;52.624;9.212;2022-07-22T12:50:29;4.17;;;2.57;;
7817;SDS011;3954;52.624;9.212;2022-07-22T12:52:55;3.80;;;2.40;;
7817;SDS011;3954;52.624;9.212;2022-07-22T12:55:22;5.73;;;2.80;;
7817;SDS011;3954;52.624;9.212;2022-07-22T12:57:48;8.23;;;2.93;;
7817;SDS011;3954;52.624;9.212;2022-07-22T13:00:19;4.73;;;2.83;;
7817;SDS011;3954;52.624;9.212;2022-07-22T13:02:46;6.53;;;2.93;;
7817;SDS011;3954;52.624;9.212;2022-07-22T13:05:12;5.63;;;2.60;;
7817;SDS011;3954;52.624;9.212;2022-07-22T13:07:38;7.00;;;2.60;;
7817;SDS011;3954;52.624;9.212;2022-07-22T13:10:05;3.93;;;2.57;;
7817;SDS011;3954;52.624;9.212;2022-07-22T13:12:31;5.10;;;2.50;;
7817;SDS011;3954;52.624;9.212;2022-07-22T13:14:57;8.00;;;3.00;;
7817;SDS011;3954;52.624;9.212;2022-07-22T13:17:24;6.53;;;2.80;;
7817;SDS011;3954;52.624;9.212;2022-07-22T13:19:50;3.90;;;2.73;;
7817;SDS011;3954;52.624;9.212;2022-07-22T13:22:16;5.30;;;3.10;;
7817;SDS011;3954;52.624;9.212;2022-07-22T13:24:42;5.63;;;3.33;;
7817;SDS011;3954;52.624;9.212;2022-07-22T13:27:08;6.27;;;2.80;;
7817;SDS011;3954;52.624;9.212;2022-07-22T13:29:34;4.73;;;2.43;;
7817;SDS011;3954;52.624;9.212;2022-07-22T13:32:00;8.07;;;3.20;;
7817;SDS011;3954;52.624;9.212;2022-07-22T13:34:28;7.07;;;3.07;;
7817;SDS011;3954;52.624;9.212;2022-07-22T13:36:54;5.93;;;3.07;;
7817;SDS011;3954;52.624;9.212;2022-07-22T13:39:20;5.43;;;2.80;;
7817;SDS011;3954;52.624;9.212;2022-07-22T13:41:47;8.50;;;2.60;;
7817;SDS011;3954;52.624;9.212;2022-07-22T13:44:13;8.13;;;2.63;;
7817;SDS011;3954;52.624;9.212;2022-07-22T13:46:39;6.30;;;2.77;;
7817;SDS011;3954;52.624;9.212;2022-07-22T13:49:05;9.30;;;2.57;;
7817;SDS011;3954;52.624;9.212;2022-07-22T13:51:32;5.53;;;2.37;;
7817;SDS011;3954;52.624;9.212;2022-07-22T13:53:58;7.53;;;2.93;;
7817;SDS011;3954;52.624;9.212;2022-07-22T13:56:24;5.37;;;2.73;;
7817;SDS011;3954;52.624;9.212;2022-07-22T13:58:51;3.60;;;2.50;;
7817;SDS011;3954;52.624;9.212;2022-07-22T14:01:17;8.47;;;2.80;;
7817;SDS011;3954;52.624;9.212;2022-07-22T14:03:43;6.67;;;2.77;;
7817;SDS011;3954;52.624;9.212;2022-07-22T14:06:09;4.43;;;2.87;;
7817;SDS011;3954;52.624;9.212;2022-07-22T14:08:36;7.23;;;2.67;;
7817;SDS011;3954;52.624;9.212;2022-07-22T14:11:02;6.67;;;3.00;;
7817;SDS011;3954;52.624;9.212;2022-07-22T14:13:29;7.00;;;2.63;;
7817;SDS011;3954;52.624;9.212;2022-07-22T14:15:55;11.97;;;2.63;;
7817;SDS011;3954;52.624;9.212;2022-07-22T14:18:21;3.67;;;2.57;;
7817;SDS011;3954;52.624;9.212;2022-07-22T14:20:47;5.13;;;2.70;;
7817;SDS011;3954;52.624;9.212;2022-07-22T14:23:13;7.03;;;2.77;;
7817;SDS011;3954;52.624;9.212;2022-07-22T14:25:42;6.40;;;2.73;;
7817;SDS011;3954;52.624;9.212;2022-07-22T14:28:08;5.77;;;2.90;;
7817;SDS011;3954;52.624;9.212;2022-07-22T14:30:34;4.23;;;2.10;;
7817;SDS011;3954;52.624;9.212;2022-07-22T14:33:01;5.20;;;2.80;;
7817;SDS011;3954;52.624;9.212;2022-07-22T14:35:27;6.80;;;3.10;;
7817;SDS011;3954;52.624;9.212;2022-07-22T14:37:53;3.67;;;2.83;;
7817;SDS011;3954;52.624;9.212;2022-07-22T14:40:19;8.27;;;3.13;;
7817;SDS011;3954;52.624;9.212;2022-07-22T14:42:47;6.47;;;2.43;;
7817;SDS011;3954;52.624;9.212;2022-07-22T14:45:14;9.97;;;2.67;;
7817;SDS011;3954;52.624;9.212;2022-07-22T14:47:40;5.67;;;2.90;;
7817;SDS011;3954;52.624;9.212;2022-07-22T14:50:06;4.10;;;2.63;;
7817;SDS011;3954;52.624;9.212;2022-07-22T14:52:33;7.17;;;2.40;;
7817;SDS011;3954;52.624;9.212;2022-07-22T14:54:59;5.93;;;2.93;;
7817;SDS011;3954;52.624;9.212;2022-07-22T14:57:25;6.73;;;2.70;;
7817;SDS011;3954;52.624;9.212;2022-07-22T14:59:52;7.60;;;3.30;;
7817;SDS011;3954;52.624;9.212;2022-07-22T15:02:18;3.13;;;2.43;;
7817;SDS011;3954;52.624;9.212;2022-07-22T15:04:45;5.07;;;2.97;;
7817;SDS011;3954;52.624;9.212;2022-07-22T15:07:11;6.47;;;2.90;;
7817;SDS011;3954;52.624;9.212;2022-07-22T15:09:37;4.63;;;2.70;;
7817;SDS011;3954;52.624;9.212;2022-07-22T15:12:04;6.40;;;2.73;;
7817;SDS011;3954;52.624;9.212;2022-07-22T15:14:30;8.17;;;3.20;;
7817;SDS011;3954;52.624;9.212;2022-07-22T15:16:57;6.83;;;2.90;;